createdAt,value
2022-12-08T00:01:34.765Z,101036.97
2022-12-08T00:04:04.481Z,101029.16
2022-12-08T00:06:57.114Z,101025.66
2022-12-08T00:09:39.451Z,101017.00
2022-12-08T00:12:09.752Z,101015.25
2022-12-08T00:14:44.006Z,101011.78
2022-12-08T00:17:15.198Z,101006.59
2022-12-08T00:19:44.101Z,101006.59
2022-12-08T00:22:12.908Z,100988.38
2022-12-08T00:24:44.065Z,100991.00
2022-12-08T00:27:15.682Z,100989.28
2022-12-08T00:29:45.704Z,100982.34
2022-12-08T00:32:13.238Z,100979.75
2022-12-08T00:34:40.310Z,100982.38
2022-12-08T00:37:07.465Z,100983.25
2022-12-08T00:39:34.593Z,100980.63
2022-12-08T00:42:13.938Z,100976.31
2022-12-08T00:44:43.746Z,100977.19
2022-12-08T00:47:12.182Z,100972.81
2022-12-08T00:49:40.963Z,100967.63
2022-12-08T00:52:08.504Z,100962.41
2022-12-08T00:54:35.751Z,100959.81
2022-12-08T00:57:06.385Z,100962.41
2022-12-08T00:59:33.722Z,100953.72
2022-12-08T01:02:00.765Z,100949.41
2022-12-08T01:04:27.795Z,100957.19
2022-12-08T01:06:54.972Z,100961.56
2022-12-08T01:09:22.036Z,100957.22
2022-12-08T01:11:50.426Z,100953.72
2022-12-08T01:14:17.538Z,100954.59
2022-12-08T01:16:44.664Z,100954.59
2022-12-08T01:19:14.496Z,100952.88
2022-12-08T01:21:43.850Z,100946.78
2022-12-08T01:24:20.441Z,100952.00
2022-12-08T01:26:49.857Z,100951.13
2022-12-08T01:29:17.709Z,100951.13
2022-12-08T01:31:45.068Z,100952.00
2022-12-08T01:34:12.342Z,100955.47
2022-12-08T01:36:39.501Z,100945.91
2022-12-08T01:39:14.183Z,100942.44
2022-12-08T01:41:43.811Z,100948.53
2022-12-08T01:44:10.887Z,100946.81
2022-12-08T01:46:44.585Z,100943.31
2022-12-08T01:49:19.563Z,100933.78
2022-12-08T01:51:55.168Z,100939.84
2022-12-08T01:54:29.215Z,100924.22
2022-12-08T01:57:09.041Z,100923.34
2022-12-08T01:59:43.624Z,100920.72
2022-12-08T02:02:12.516Z,100925.94
2022-12-08T02:04:39.599Z,100919.88
2022-12-08T02:07:10.007Z,100918.97
2022-12-08T02:09:39.838Z,100920.72
2022-12-08T02:12:07.943Z,100911.19
2022-12-08T02:14:35.776Z,100906.81
2022-12-08T02:17:34.773Z,100902.50
2022-12-08T02:20:27.510Z,100895.53
2022-12-08T02:23:23.942Z,100895.53
2022-12-08T02:26:31.930Z,100889.47
2022-12-08T02:29:31.167Z,100879.00
2022-12-08T02:32:44.353Z,100879.03
2022-12-08T02:35:30.963Z,100876.41
2022-12-08T02:38:17.780Z,100874.69
2022-12-08T02:41:18.338Z,100872.97
2022-12-08T02:43:54.754Z,100875.56
2022-12-08T02:46:31.080Z,100863.41
2022-12-08T02:49:00.322Z,100864.25
2022-12-08T02:51:27.383Z,100857.31
2022-12-08T02:53:55.576Z,100852.97
2022-12-08T02:56:53.186Z,100846.03
2022-12-08T02:59:32.610Z,100846.03
2022-12-08T03:02:24.520Z,100840.81
2022-12-08T03:05:32.605Z,100842.53
2022-12-08T03:08:25.735Z,100839.91
2022-12-08T03:11:09.458Z,100835.59
2022-12-08T03:13:51.441Z,100832.13
2022-12-08T03:16:26.926Z,100822.56
2022-12-08T03:19:09.561Z,100832.09
2022-12-08T03:21:39.338Z,100832.09
2022-12-08T03:24:09.617Z,100819.09
2022-12-08T03:26:46.399Z,100832.13
2022-12-08T03:29:14.621Z,100830.38
2022-12-08T03:31:51.964Z,100820.81
2022-12-08T03:34:21.283Z,100820.81
2022-12-08T03:36:48.302Z,100812.16
2022-12-08T03:39:15.403Z,100821.69
2022-12-08T03:41:42.632Z,100810.41
2022-12-08T03:44:09.681Z,100820.81
2022-12-08T03:46:36.756Z,100811.25
2022-12-08T03:49:03.907Z,100806.91
2022-12-08T03:51:31.100Z,100808.66
2022-12-08T03:53:58.110Z,100802.56
2022-12-08T03:56:33.278Z,100800.81
2022-12-08T03:59:01.177Z,100807.78
2022-12-08T04:01:28.688Z,100809.50
2022-12-08T04:03:56.109Z,100794.75
2022-12-08T04:06:23.889Z,100802.56
2022-12-08T04:08:52.486Z,100800.84
2022-12-08T04:11:20.396Z,100790.41
2022-12-08T04:13:47.887Z,100786.09
2022-12-08T04:16:19.559Z,100784.31
2022-12-08T04:18:46.794Z,100788.69
2022-12-08T04:21:15.157Z,100786.09
2022-12-08T04:23:43.350Z,100781.72
2022-12-08T04:26:10.946Z,100788.69
2022-12-08T04:28:38.192Z,100786.94
2022-12-08T04:31:06.299Z,100778.28
2022-12-08T04:33:35.256Z,100781.72
2022-12-08T04:36:05.158Z,100785.22
2022-12-08T04:38:34.070Z,100792.16
2022-12-08T04:41:02.067Z,100789.56
2022-12-08T04:43:29.436Z,100783.47
2022-12-08T04:45:56.560Z,100780.03
2022-12-08T04:48:24.003Z,100778.28
2022-12-08T04:50:51.588Z,100769.59
2022-12-08T04:53:20.042Z,100777.41
2022-12-08T04:55:48.723Z,100768.75
2022-12-08T04:58:19.129Z,100767.88
2022-12-08T05:00:48.639Z,100763.53
2022-12-08T05:03:16.962Z,100759.19
2022-12-08T05:05:44.525Z,100760.06
2022-12-08T05:08:11.908Z,100758.31
2022-12-08T05:10:39.242Z,100762.63
2022-12-08T05:13:06.610Z,100763.50
2022-12-08T05:15:34.606Z,100770.47
2022-12-08T05:18:07.698Z,100772.19
2022-12-08T05:20:34.994Z,100768.72
2022-12-08T05:23:02.052Z,100767.00
2022-12-08T05:25:29.231Z,100765.25
2022-12-08T05:28:17.529Z,100761.78
2022-12-08T05:30:43.435Z,100760.91
2022-12-08T05:33:10.473Z,100748.75
2022-12-08T05:35:37.551Z,100748.75
2022-12-08T05:38:06.157Z,100753.97
2022-12-08T05:40:33.293Z,100747.03
2022-12-08T05:43:00.401Z,100747.88
2022-12-08T05:45:27.446Z,100746.16
2022-12-08T05:47:54.447Z,100747.00
2022-12-08T05:50:22.523Z,100740.91
2022-12-08T05:52:49.511Z,100739.16
2022-12-08T05:55:17.862Z,100743.50
2022-12-08T05:57:44.930Z,100743.47
2022-12-08T06:00:12.756Z,100746.06
2022-12-08T06:02:39.881Z,100733.84
2022-12-08T06:05:07.676Z,100731.22
2022-12-08T06:07:34.813Z,100734.69
2022-12-08T06:10:02.581Z,100731.19
2022-12-08T06:12:31.076Z,100732.91
2022-12-08T06:14:58.147Z,100728.50
2022-12-08T06:17:25.211Z,100733.69
2022-12-08T06:19:52.369Z,100724.06
2022-12-08T06:22:19.725Z,100724.06
2022-12-08T06:24:46.779Z,100729.34
2022-12-08T06:27:13.880Z,100736.38
2022-12-08T06:29:41.173Z,100727.72
2022-12-08T06:32:08.292Z,100737.31
2022-12-08T06:34:35.376Z,100726.06
2022-12-08T06:37:02.490Z,100733.00
2022-12-08T06:39:29.599Z,100721.75
2022-12-08T06:42:17.200Z,100723.50
2022-12-08T06:44:44.244Z,100727.88
2022-12-08T06:47:11.382Z,100726.13
2022-12-08T06:49:40.277Z,100729.63
2022-12-08T06:52:07.298Z,100734.00
2022-12-08T06:54:34.506Z,100738.34
2022-12-08T06:57:01.531Z,100730.50
2022-12-08T06:59:28.562Z,100721.84
2022-12-08T07:01:55.718Z,100725.28
2022-12-08T07:04:23.295Z,100728.78
2022-12-08T07:06:50.535Z,100721.84
2022-12-08T07:09:17.592Z,100727.94
2022-12-08T07:11:44.569Z,100731.41
2022-12-08T07:14:13.439Z,100728.78
2022-12-08T07:16:40.546Z,100734.88
2022-12-08T07:19:07.637Z,100730.53
2022-12-08T07:21:34.627Z,100727.94
2022-12-08T07:24:02.639Z,100730.53
2022-12-08T07:26:29.626Z,100735.75
2022-12-08T07:28:56.690Z,100726.22
2022-12-08T07:31:26.185Z,100733.13
2022-12-08T07:33:56.846Z,100730.56
2022-12-08T07:36:25.049Z,100733.16
2022-12-08T07:38:53.689Z,100735.72
2022-12-08T07:41:24.400Z,100727.91
2022-12-08T07:43:53.586Z,100726.16
2022-12-08T07:46:23.685Z,100725.31
2022-12-08T07:48:53.193Z,100730.53
2022-12-08T07:51:20.363Z,100733.13
2022-12-08T07:53:53.802Z,100728.78
2022-12-08T07:56:22.772Z,100723.56
2022-12-08T07:58:50.503Z,100719.25
2022-12-08T08:01:30.154Z,100724.41
2022-12-08T08:04:01.799Z,100722.69
2022-12-08T08:06:29.011Z,100720.94
2022-12-08T08:08:56.135Z,100734.84
2022-12-08T08:11:23.623Z,100729.63
2022-12-08T08:13:51.875Z,100729.63
2022-12-08T08:16:21.210Z,100724.41
2022-12-08T08:18:50.908Z,100727.00
2022-12-08T08:21:44.307Z,100729.63
2022-12-08T08:24:07.008Z,100723.53
2022-12-08T08:26:34.221Z,100732.22
2022-12-08T08:29:01.309Z,100726.16
2022-12-08T08:31:28.516Z,100726.16
2022-12-08T08:33:56.864Z,100731.31
2022-12-08T08:36:23.942Z,100721.78
2022-12-08T08:38:51.089Z,100722.66
2022-12-08T08:41:18.101Z,100725.22
2022-12-08T08:43:45.156Z,100729.59
2022-12-08T08:46:12.323Z,100728.69
2022-12-08T08:48:39.376Z,100725.22
2022-12-08T08:51:14.026Z,100734.78
2022-12-08T08:53:42.389Z,100732.16
2022-12-08T08:56:18.415Z,100739.13
2022-12-08T08:58:49.244Z,100740.84
2022-12-08T09:01:21.254Z,100741.72
2022-12-08T09:03:49.274Z,100744.34
2022-12-08T09:06:17.719Z,100748.69
2022-12-08T09:08:47.683Z,100746.94
2022-12-08T09:11:15.627Z,100751.28
2022-12-08T09:13:42.698Z,100746.06
2022-12-08T09:16:11.662Z,100751.28
2022-12-08T09:18:38.736Z,100757.38
2022-12-08T09:21:09.322Z,100751.28
2022-12-08T09:23:36.366Z,100746.97
2022-12-08T09:26:05.194Z,100746.94
2022-12-08T09:28:33.331Z,100740.88
2022-12-08T09:31:01.390Z,100746.09
2022-12-08T09:33:28.532Z,100747.81
2022-12-08T09:35:55.754Z,100750.41
2022-12-08T09:38:22.784Z,100750.41
2022-12-08T09:40:53.187Z,100743.44
2022-12-08T09:43:52.260Z,100747.75
2022-12-08T09:46:20.815Z,100751.25
2022-12-08T09:48:56.031Z,100748.63
2022-12-08T09:51:25.873Z,100751.25
2022-12-08T09:54:02.752Z,100753.00
2022-12-08T09:56:36.938Z,100739.97
2022-12-08T09:59:20.912Z,100741.72
2022-12-08T10:01:48.167Z,100752.13
2022-12-08T10:04:36.551Z,100744.34
2022-12-08T10:07:16.901Z,100751.28
2022-12-08T10:10:19.037Z,100746.06
2022-12-08T10:13:00.246Z,100736.50
2022-12-08T10:15:47.750Z,100739.09
2022-12-08T10:18:28.956Z,100742.53
2022-12-08T10:21:11.760Z,100733.84
2022-12-08T10:23:44.409Z,100728.63
2022-12-08T10:26:18.586Z,100733.81
2022-12-08T10:28:45.977Z,100726.00
2022-12-08T10:31:25.002Z,100724.22
2022-12-08T10:34:10.551Z,100729.47
2022-12-08T10:36:56.247Z,100719.88
2022-12-08T10:39:32.314Z,100726.78
2022-12-08T10:42:14.396Z,100727.63
2022-12-08T10:44:58.170Z,100717.19
2022-12-08T10:47:28.155Z,100711.09
2022-12-08T10:50:27.666Z,100704.94
2022-12-08T10:53:02.478Z,100711.94
2022-12-08T10:55:47.663Z,100712.78
2022-12-08T10:58:24.408Z,100703.22
2022-12-08T11:00:57.418Z,100708.44
2022-12-08T11:03:32.873Z,100715.34
2022-12-08T11:06:10.973Z,100706.69
2022-12-08T11:08:50.516Z,100714.53
2022-12-08T11:11:24.361Z,100708.47
2022-12-08T11:13:54.847Z,100713.69
2022-12-08T11:16:23.591Z,100706.75
2022-12-08T11:18:58.658Z,100705.00
2022-12-08T11:21:36.978Z,100700.63
2022-12-08T11:24:23.261Z,100691.03
2022-12-08T11:27:05.392Z,100692.75
2022-12-08T11:29:35.681Z,100686.66
2022-12-08T11:32:12.654Z,100684.03
2022-12-08T11:35:00.727Z,100679.63
2022-12-08T11:37:43.282Z,100676.13
2022-12-08T11:40:28.676Z,100672.63
2022-12-08T11:43:50.669Z,100670.84
2022-12-08T11:46:27.472Z,100663.88
2022-12-08T11:49:06.792Z,100663.81
2022-12-08T11:52:24.049Z,100667.34
2022-12-08T11:55:21.228Z,100669.16
2022-12-08T11:57:48.984Z,100661.38
2022-12-08T12:00:17.934Z,100670.94
2022-12-08T12:03:03.089Z,100670.13
2022-12-08T12:06:09.221Z,100666.66
2022-12-08T12:09:06.158Z,100668.38
2022-12-08T12:12:08.181Z,100663.19
2022-12-08T12:14:58.339Z,100667.56
2022-12-08T12:17:53.122Z,100660.59
2022-12-08T12:20:27.853Z,100658.00
2022-12-08T12:23:42.887Z,100656.28
2022-12-08T12:26:21.397Z,100660.63
2022-12-08T12:29:15.190Z,100660.59
2022-12-08T12:31:51.287Z,100660.59
2022-12-08T12:34:29.056Z,100662.38
2022-12-08T12:37:11.342Z,100663.19
2022-12-08T12:39:53.473Z,100651.91
2022-12-08T12:42:56.042Z,100650.19
2022-12-08T12:45:33.136Z,100646.69
2022-12-08T12:48:00.186Z,100644.06
2022-12-08T12:50:33.620Z,100635.34
2022-12-08T12:53:26.801Z,100628.38
2022-12-08T12:56:00.745Z,100632.69
2022-12-08T12:58:27.695Z,100633.53
2022-12-08T13:01:57.102Z,100638.72
2022-12-08T13:04:37.577Z,100641.31
2022-12-08T13:07:05.377Z,100642.19
2022-12-08T13:09:41.894Z,100632.63
2022-12-08T13:12:24.309Z,100629.16
2022-12-08T13:15:00.801Z,100632.63
2022-12-08T13:17:31.707Z,100631.75
2022-12-08T13:20:05.326Z,100630.84
2022-12-08T13:22:54.396Z,100629.06
2022-12-08T13:25:39.896Z,100624.75
2022-12-08T13:28:15.914Z,100622.13
2022-12-08T13:30:50.021Z,100629.06
2022-12-08T13:33:29.147Z,100623.84
2022-12-08T13:36:24.093Z,100629.91
2022-12-08T13:38:57.818Z,100621.25
2022-12-08T13:41:41.668Z,100618.63
2022-12-08T13:47:33.984Z,100610.88
2022-12-08T13:59:30.404Z,100603.91
2022-12-08T14:02:13.174Z,100595.25
2022-12-08T14:05:16.960Z,100589.19
2022-12-08T14:07:34.975Z,100587.50
2022-12-08T14:10:03.953Z,100589.25
2022-12-08T14:12:31.810Z,100588.41
2022-12-08T14:15:06.835Z,100587.53
2022-12-08T14:17:34.576Z,100585.81
2022-12-08T14:20:29.471Z,100584.06
2022-12-08T14:22:59.378Z,100586.69
2022-12-08T14:25:30.193Z,100587.56
2022-12-08T14:28:04.271Z,100595.44
2022-12-08T14:30:33.291Z,100602.41
2022-12-08T14:33:04.507Z,100604.19
2022-12-08T14:35:34.346Z,100597.25
2022-12-08T14:38:24.421Z,100610.31
2022-12-08T14:41:08.738Z,100599.88
2022-12-08T14:43:37.143Z,100601.66
2022-12-08T14:46:22.873Z,100592.94
2022-12-08T14:48:50.245Z,100596.44
2022-12-08T14:51:20.546Z,100597.28
2022-12-08T14:54:06.486Z,100605.09
2022-12-08T14:56:39.321Z,100590.34
2022-12-08T14:59:20.023Z,100595.59
2022-12-08T15:01:51.066Z,100593.00
2022-12-08T15:04:24.598Z,100598.22
2022-12-08T15:07:05.606Z,100603.44
2022-12-08T15:09:38.409Z,100597.38
2022-12-08T15:12:24.729Z,100600.84
2022-12-08T15:15:17.638Z,100599.13
2022-12-08T15:17:57.465Z,100604.34
2022-12-08T15:20:44.316Z,100606.13
2022-12-08T15:23:20.276Z,100620.91
2022-12-08T15:25:48.591Z,100610.53
2022-12-08T15:28:22.055Z,100607.97
2022-12-08T15:30:52.362Z,100616.72
2022-12-08T15:33:21.314Z,100619.38
2022-12-08T15:35:50.531Z,100619.41
2022-12-08T15:38:27.088Z,100621.16
2022-12-08T15:40:58.760Z,100629.88
2022-12-08T15:43:26.274Z,100629.00
2022-12-08T15:45:59.536Z,100622.03
2022-12-08T15:48:30.097Z,100620.31
2022-12-08T15:50:58.322Z,100624.66
2022-12-08T15:53:25.819Z,100624.66
2022-12-08T15:58:58.129Z,100633.28
2022-12-08T16:01:26.810Z,100628.94
2022-12-08T16:09:44.007Z,100622.00
2022-12-08T16:18:28.178Z,100622.84
2022-12-08T16:23:44.603Z,100631.53
2022-12-08T16:26:28.346Z,100623.69
2022-12-08T16:29:04.744Z,100628.91
2022-12-08T16:31:35.400Z,100617.63
2022-12-08T16:34:02.578Z,100619.34
2022-12-08T16:36:29.634Z,100617.63
2022-12-08T16:38:58.672Z,100622.84
2022-12-08T16:41:44.689Z,100623.72
2022-12-08T16:44:12.744Z,100616.78
2022-12-08T16:46:39.790Z,100619.41
2022-12-08T16:49:09.618Z,100626.34
2022-12-08T16:51:36.776Z,100618.59
2022-12-08T16:54:03.931Z,100620.34
2022-12-08T16:56:33.399Z,100628.13
2022-12-08T16:59:02.310Z,100624.69
2022-12-08T17:01:30.340Z,100623.81
2022-12-08T17:06:44.639Z,100622.06
2022-12-08T17:09:11.804Z,100630.75
2022-12-08T17:11:42.949Z,100617.75
2022-12-08T17:14:15.417Z,100621.22
2022-12-08T17:16:43.741Z,100616.00
2022-12-08T17:19:15.153Z,100615.16
2022-12-08T17:21:44.538Z,100612.56
2022-12-08T17:24:12.954Z,100616.00
2022-12-08T17:26:43.064Z,100619.47
2022-12-08T17:29:10.069Z,100620.31
2022-12-08T17:31:37.184Z,100615.13
2022-12-08T17:34:10.421Z,100613.38
2022-12-08T17:36:38.077Z,100622.91
2022-12-08T17:39:08.652Z,100619.47
2022-12-08T17:41:38.335Z,100622.06
2022-12-08T17:44:13.111Z,100616.88
2022-12-08T17:46:43.444Z,100620.34
2022-12-08T17:49:19.347Z,100615.16
2022-12-08T17:51:49.589Z,100617.75
2022-12-08T17:54:18.724Z,100620.34
2022-12-08T17:56:47.833Z,100618.63
2022-12-08T17:59:15.514Z,100622.09
2022-12-08T18:01:43.079Z,100615.16
2022-12-08T18:04:11.741Z,100618.63
2022-12-08T18:06:40.596Z,100613.41
2022-12-08T18:09:08.702Z,100629.03
2022-12-08T18:11:36.622Z,100632.50
2022-12-08T18:14:10.005Z,100635.09
2022-12-08T18:16:41.933Z,100635.09
2022-12-08T18:19:10.299Z,100620.34
2022-12-08T18:21:38.147Z,100628.13
2022-12-08T18:24:06.382Z,100622.94
2022-12-08T18:26:33.810Z,100624.66
2022-12-08T18:29:01.162Z,100620.34
2022-12-08T18:31:28.367Z,100614.25
2022-12-08T18:33:55.668Z,100610.78
2022-12-08T18:36:26.056Z,100617.72
2022-12-08T18:38:54.096Z,100614.25
2022-12-08T18:41:25.710Z,100617.72
2022-12-08T18:43:55.401Z,100619.44
2022-12-08T18:46:24.565Z,100615.13
2022-12-08T18:48:58.262Z,100618.59
2022-12-08T18:51:25.423Z,100614.22
2022-12-08T18:53:53.079Z,100624.66
2022-12-08T18:56:28.698Z,100616.84
2022-12-08T18:59:02.986Z,100621.19
2022-12-08T19:01:35.766Z,100616.00
2022-12-08T19:06:54.621Z,100607.31
2022-12-08T19:09:22.764Z,100611.66
2022-12-08T19:11:50.114Z,100608.16
2022-12-08T19:14:20.088Z,100604.69
2022-12-08T19:16:50.512Z,100608.19
2022-12-08T19:19:17.962Z,100602.97
2022-12-08T19:21:46.748Z,100606.47
2022-12-08T19:24:14.055Z,100602.13
2022-12-08T19:26:42.907Z,100604.72
2022-12-08T19:29:11.248Z,100604.72
2022-12-08T19:31:38.565Z,100603.00
2022-12-08T19:34:06.406Z,100608.19
2022-12-08T19:36:35.692Z,100609.06
2022-12-08T19:39:23.863Z,100615.16
2022-12-08T19:42:09.567Z,100620.34
2022-12-08T19:44:55.105Z,100618.63
2022-12-08T19:47:27.139Z,100617.75
2022-12-08T19:50:15.808Z,100615.16
2022-12-08T19:52:44.315Z,100617.75
2022-12-08T19:55:13.212Z,100613.44
2022-12-08T19:57:40.418Z,100620.34
2022-12-08T20:00:11.276Z,100615.16
2022-12-08T20:02:38.969Z,100613.41
2022-12-08T20:05:07.548Z,100623.84
2022-12-08T20:07:34.723Z,100619.50
2022-12-08T20:10:08.035Z,100620.34
2022-12-08T20:12:35.402Z,100616.91
2022-12-08T20:15:02.436Z,100618.66
2022-12-08T20:17:29.486Z,100628.16
2022-12-08T20:19:56.527Z,100621.25
2022-12-08T20:22:23.581Z,100616.91
2022-12-08T20:24:57.372Z,100624.69
2022-12-08T20:27:25.510Z,100626.44
2022-12-08T20:29:52.597Z,100623.84
2022-12-08T20:32:19.756Z,100629.03
2022-12-08T20:34:46.838Z,100630.75
2022-12-08T20:37:14.081Z,100622.09
2022-12-08T20:39:41.116Z,100628.19
2022-12-08T20:42:13.648Z,100630.75
2022-12-08T20:44:50.754Z,100627.31
2022-12-08T20:47:17.896Z,100630.75
2022-12-08T20:49:46.912Z,100619.50
2022-12-08T20:52:14.021Z,100629.03
2022-12-08T20:54:41.386Z,100630.78
2022-12-08T20:57:09.617Z,100624.69
2022-12-08T20:59:36.939Z,100634.22
2022-12-08T21:02:04.422Z,100631.63
2022-12-08T21:04:31.674Z,100623.84
2022-12-08T21:06:59.712Z,100624.69
2022-12-08T21:09:27.027Z,100623.84
2022-12-08T21:11:54.341Z,100624.69
2022-12-08T21:14:21.671Z,100624.69
2022-12-08T21:16:50.834Z,100621.22
2022-12-08T21:19:19.798Z,100619.47
2022-12-08T21:21:47.928Z,100624.72
2022-12-08T21:24:15.776Z,100624.72
2022-12-08T21:26:43.086Z,100629.03
2022-12-08T21:29:12.384Z,100627.31
2022-12-08T21:31:40.664Z,100627.31
2022-12-08T21:34:08.036Z,100626.44
2022-12-08T21:36:35.175Z,100638.56
2022-12-08T21:39:02.815Z,100629.03
2022-12-08T21:41:49.105Z,100627.31
2022-12-08T21:44:20.149Z,100628.16
2022-12-08T21:46:47.483Z,100636.00
2022-12-08T21:49:15.477Z,100638.59
2022-12-08T21:51:44.094Z,100634.25
2022-12-08T21:54:18.288Z,100634.25
2022-12-08T21:56:48.625Z,100638.56
2022-12-08T21:59:17.720Z,100635.13
2022-12-08T22:01:45.220Z,100637.72
2022-12-08T22:04:18.263Z,100634.22
2022-12-08T22:06:47.082Z,100641.19
2022-12-08T22:09:15.280Z,100639.44
2022-12-08T22:11:44.151Z,100641.19
2022-12-08T22:14:14.963Z,100642.91
2022-12-08T22:16:44.100Z,100643.78
2022-12-08T22:19:12.207Z,100645.53
2022-12-08T22:21:39.973Z,100642.91
2022-12-08T22:24:07.863Z,100642.91
2022-12-08T22:26:34.967Z,100643.78
2022-12-08T22:29:02.180Z,100642.94
2022-12-08T22:31:29.255Z,100639.44
2022-12-08T22:33:59.581Z,100635.97
2022-12-08T22:36:28.052Z,100635.97
2022-12-08T22:38:55.829Z,100639.41
2022-12-08T22:41:23.858Z,100635.09
2022-12-08T22:43:51.324Z,100629.00
2022-12-08T22:46:26.875Z,100631.63
2022-12-08T22:48:55.232Z,100628.16
2022-12-08T22:51:23.488Z,100620.34
2022-12-08T22:53:50.839Z,100625.56
2022-12-08T22:56:19.688Z,100619.50
2022-12-08T22:58:48.374Z,100626.44
2022-12-08T23:01:31.833Z,100619.50
2022-12-08T23:04:00.508Z,100621.22
2022-12-08T23:06:29.920Z,100627.28
2022-12-08T23:08:57.446Z,100619.47
2022-12-08T23:11:29.729Z,100626.41
2022-12-08T23:14:02.604Z,100616.88
2022-12-08T23:16:30.002Z,100622.97
2022-12-08T23:18:58.845Z,100616.88
2022-12-08T23:21:25.931Z,100616.03
2022-12-08T23:23:53.017Z,100617.75
2022-12-08T23:26:25.725Z,100605.59
2022-12-08T23:28:53.726Z,100613.41
2022-12-08T23:31:22.423Z,100617.78
2022-12-08T23:33:51.886Z,100609.97
2022-12-08T23:36:21.585Z,100612.56
2022-12-08T23:38:49.651Z,100609.06
2022-12-08T23:41:16.994Z,100610.81
2022-12-08T23:43:48.406Z,100618.63
2022-12-08T23:46:18.396Z,100606.50
2022-12-08T23:48:45.979Z,100608.22
2022-12-08T23:51:14.575Z,100603.00
2022-12-08T23:53:42.116Z,100602.16
2022-12-08T23:56:13.539Z,100605.63
2022-12-08T23:58:42.715Z,100594.31
